sensor_id;sensor_type;location;lat;lon;timestamp;P1;durP1;ratioP1;P2;durP2;ratioP2
9836;SDS011;4957;51.412;6.724;2023-05-07T00:02:21;3.37;;;2.77;;
9836;SDS011;4957;51.412;6.724;2023-05-07T00:04:48;5.93;;;2.90;;
9836;SDS011;4957;51.412;6.724;2023-05-07T00:07:14;4.60;;;2.70;;
9836;SDS011;4957;51.412;6.724;2023-05-07T00:09:40;3.43;;;2.57;;
9836;SDS011;4957;51.412;6.724;2023-05-07T00:12:06;3.17;;;2.40;;
9836;SDS011;4957;51.412;6.724;2023-05-07T00:14:32;5.67;;;3.20;;
9836;SDS011;4957;51.412;6.724;2023-05-07T00:16:58;3.73;;;3.13;;
9836;SDS011;4957;51.412;6.724;2023-05-07T00:19:23;7.53;;;3.50;;
9836;SDS011;4957;51.412;6.724;2023-05-07T00:21:49;6.93;;;3.60;;
9836;SDS011;4957;51.412;6.724;2023-05-07T00:24:15;3.57;;;3.13;;
9836;SDS011;4957;51.412;6.724;2023-05-07T00:26:41;7.57;;;3.00;;
9836;SDS011;4957;51.412;6.724;2023-05-07T00:29:06;4.90;;;3.60;;
9836;SDS011;4957;51.412;6.724;2023-05-07T00:31:32;5.13;;;3.30;;
9836;SDS011;4957;51.412;6.724;2023-05-07T00:33:58;4.10;;;3.50;;
9836;SDS011;4957;51.412;6.724;2023-05-07T00:36:23;7.90;;;2.97;;
9836;SDS011;4957;51.412;6.724;2023-05-07T00:38:50;6.90;;;3.00;;
9836;SDS011;4957;51.412;6.724;2023-05-07T00:41:16;5.20;;;3.17;;
9836;SDS011;4957;51.412;6.724;2023-05-07T00:43:41;7.87;;;3.50;;
9836;SDS011;4957;51.412;6.724;2023-05-07T00:46:07;4.40;;;3.40;;
9836;SDS011;4957;51.412;6.724;2023-05-07T00:48:33;5.07;;;3.40;;
9836;SDS011;4957;51.412;6.724;2023-05-07T00:50:58;5.80;;;3.57;;
9836;SDS011;4957;51.412;6.724;2023-05-07T00:53:24;5.43;;;2.53;;
9836;SDS011;4957;51.412;6.724;2023-05-07T00:55:50;3.40;;;2.70;;
9836;SDS011;4957;51.412;6.724;2023-05-07T00:58:16;7.27;;;2.97;;
9836;SDS011;4957;51.412;6.724;2023-05-07T01:00:41;3.07;;;2.50;;
9836;SDS011;4957;51.412;6.724;2023-05-07T01:03:07;4.70;;;3.80;;
9836;SDS011;4957;51.412;6.724;2023-05-07T01:05:33;5.93;;;3.80;;
9836;SDS011;4957;51.412;6.724;2023-05-07T01:08:00;4.87;;;3.40;;
9836;SDS011;4957;51.412;6.724;2023-05-07T01:10:27;3.83;;;3.30;;
9836;SDS011;4957;51.412;6.724;2023-05-07T01:12:55;4.43;;;3.30;;
9836;SDS011;4957;51.412;6.724;2023-05-07T01:15:22;6.40;;;3.80;;
9836;SDS011;4957;51.412;6.724;2023-05-07T01:17:48;3.87;;;3.53;;
9836;SDS011;4957;51.412;6.724;2023-05-07T01:20:14;6.97;;;3.53;;
9836;SDS011;4957;51.412;6.724;2023-05-07T01:22:40;7.13;;;3.30;;
9836;SDS011;4957;51.412;6.724;2023-05-07T01:25:08;6.10;;;4.00;;
9836;SDS011;4957;51.412;6.724;2023-05-07T01:27:34;6.37;;;4.13;;
9836;SDS011;4957;51.412;6.724;2023-05-07T01:30:01;7.13;;;3.90;;
9836;SDS011;4957;51.412;6.724;2023-05-07T01:33:13;6.17;;;3.30;;
9836;SDS011;4957;51.412;6.724;2023-05-07T01:35:30;5.90;;;3.53;;
9836;SDS011;4957;51.412;6.724;2023-05-07T01:38:01;6.90;;;3.90;;
9836;SDS011;4957;51.412;6.724;2023-05-07T01:40:29;5.67;;;3.70;;
9836;SDS011;4957;51.412;6.724;2023-05-07T01:42:55;5.23;;;4.03;;
9836;SDS011;4957;51.412;6.724;2023-05-07T01:45:21;8.57;;;4.57;;
9836;SDS011;4957;51.412;6.724;2023-05-07T01:47:47;4.30;;;3.70;;
9836;SDS011;4957;51.412;6.724;2023-05-07T01:50:14;9.50;;;5.00;;
9836;SDS011;4957;51.412;6.724;2023-05-07T01:52:43;6.37;;;4.60;;
9836;SDS011;4957;51.412;6.724;2023-05-07T01:55:09;9.63;;;4.70;;
9836;SDS011;4957;51.412;6.724;2023-05-07T01:57:35;4.80;;;4.27;;
9836;SDS011;4957;51.412;6.724;2023-05-07T02:00:01;6.10;;;4.87;;
9836;SDS011;4957;51.412;6.724;2023-05-07T02:02:27;8.23;;;5.07;;
9836;SDS011;4957;51.412;6.724;2023-05-07T02:04:53;8.60;;;5.50;;
9836;SDS011;4957;51.412;6.724;2023-05-07T02:07:19;6.37;;;5.60;;
9836;SDS011;4957;51.412;6.724;2023-05-07T02:09:45;7.30;;;6.13;;
9836;SDS011;4957;51.412;6.724;2023-05-07T02:12:10;7.33;;;5.23;;
9836;SDS011;4957;51.412;6.724;2023-05-07T02:14:36;9.20;;;6.00;;
9836;SDS011;4957;51.412;6.724;2023-05-07T02:17:01;5.87;;;5.30;;
9836;SDS011;4957;51.412;6.724;2023-05-07T02:19:27;8.73;;;5.20;;
9836;SDS011;4957;51.412;6.724;2023-05-07T02:21:53;8.43;;;5.33;;
9836;SDS011;4957;51.412;6.724;2023-05-07T02:24:19;6.77;;;5.50;;
9836;SDS011;4957;51.412;6.724;2023-05-07T02:26:45;10.53;;;5.50;;
9836;SDS011;4957;51.412;6.724;2023-05-07T02:29:10;9.57;;;5.77;;
9836;SDS011;4957;51.412;6.724;2023-05-07T02:31:36;9.30;;;5.67;;
9836;SDS011;4957;51.412;6.724;2023-05-07T02:34:02;10.63;;;5.23;;
9836;SDS011;4957;51.412;6.724;2023-05-07T02:36:27;6.70;;;5.17;;
9836;SDS011;4957;51.412;6.724;2023-05-07T02:38:53;7.93;;;5.10;;
9836;SDS011;4957;51.412;6.724;2023-05-07T02:41:19;6.77;;;5.37;;
9836;SDS011;4957;51.412;6.724;2023-05-07T02:43:45;8.70;;;5.13;;
9836;SDS011;4957;51.412;6.724;2023-05-07T02:46:11;7.30;;;5.30;;
9836;SDS011;4957;51.412;6.724;2023-05-07T02:48:37;5.60;;;4.57;;
9836;SDS011;4957;51.412;6.724;2023-05-07T02:51:03;7.80;;;4.93;;
9836;SDS011;4957;51.412;6.724;2023-05-07T02:53:30;8.77;;;5.73;;
9836;SDS011;4957;51.412;6.724;2023-05-07T02:55:56;8.13;;;5.17;;
9836;SDS011;4957;51.412;6.724;2023-05-07T02:58:23;6.90;;;4.87;;
9836;SDS011;4957;51.412;6.724;2023-05-07T03:00:49;6.47;;;5.33;;
9836;SDS011;4957;51.412;6.724;2023-05-07T03:03:15;6.47;;;4.33;;
9836;SDS011;4957;51.412;6.724;2023-05-07T03:05:41;9.80;;;5.77;;
9836;SDS011;4957;51.412;6.724;2023-05-07T03:08:07;6.63;;;4.83;;
9836;SDS011;4957;51.412;6.724;2023-05-07T03:10:33;7.00;;;5.30;;
9836;SDS011;4957;51.412;6.724;2023-05-07T03:12:59;7.97;;;5.47;;
9836;SDS011;4957;51.412;6.724;2023-05-07T03:15:26;5.00;;;4.50;;
9836;SDS011;4957;51.412;6.724;2023-05-07T03:17:51;7.90;;;5.40;;
9836;SDS011;4957;51.412;6.724;2023-05-07T03:20:17;9.43;;;5.60;;
9836;SDS011;4957;51.412;6.724;2023-05-07T03:22:43;9.03;;;5.13;;
9836;SDS011;4957;51.412;6.724;2023-05-07T03:25:09;9.77;;;6.40;;
9836;SDS011;4957;51.412;6.724;2023-05-07T03:27:34;7.57;;;5.23;;
9836;SDS011;4957;51.412;6.724;2023-05-07T03:30:00;6.10;;;5.10;;
9836;SDS011;4957;51.412;6.724;2023-05-07T03:32:26;6.47;;;4.97;;
9836;SDS011;4957;51.412;6.724;2023-05-07T03:34:51;7.07;;;5.17;;
9836;SDS011;4957;51.412;6.724;2023-05-07T03:37:18;7.10;;;5.40;;
9836;SDS011;4957;51.412;6.724;2023-05-07T03:39:43;6.00;;;5.03;;
9836;SDS011;4957;51.412;6.724;2023-05-07T03:42:09;7.30;;;4.70;;
9836;SDS011;4957;51.412;6.724;2023-05-07T03:44:35;10.13;;;5.13;;
9836;SDS011;4957;51.412;6.724;2023-05-07T03:47:01;6.87;;;5.70;;
9836;SDS011;4957;51.412;6.724;2023-05-07T03:49:27;8.57;;;5.93;;
9836;SDS011;4957;51.412;6.724;2023-05-07T03:51:53;7.57;;;5.40;;
9836;SDS011;4957;51.412;6.724;2023-05-07T03:54:19;6.10;;;5.50;;
9836;SDS011;4957;51.412;6.724;2023-05-07T03:56:45;8.07;;;5.90;;
9836;SDS011;4957;51.412;6.724;2023-05-07T03:59:11;8.23;;;5.10;;
9836;SDS011;4957;51.412;6.724;2023-05-07T04:01:38;7.70;;;5.67;;
9836;SDS011;4957;51.412;6.724;2023-05-07T04:04:03;6.20;;;5.37;;
9836;SDS011;4957;51.412;6.724;2023-05-07T04:06:29;7.30;;;6.03;;
9836;SDS011;4957;51.412;6.724;2023-05-07T04:08:56;12.30;;;5.47;;
9836;SDS011;4957;51.412;6.724;2023-05-07T04:11:21;10.30;;;5.80;;
9836;SDS011;4957;51.412;6.724;2023-05-07T04:13:47;7.83;;;5.90;;
9836;SDS011;4957;51.412;6.724;2023-05-07T04:16:12;6.90;;;6.00;;
9836;SDS011;4957;51.412;6.724;2023-05-07T04:18:38;8.87;;;6.57;;
9836;SDS011;4957;51.412;6.724;2023-05-07T04:21:05;8.60;;;6.10;;
9836;SDS011;4957;51.412;6.724;2023-05-07T04:23:31;9.13;;;6.43;;
9836;SDS011;4957;51.412;6.724;2023-05-07T04:25:56;6.77;;;6.03;;
9836;SDS011;4957;51.412;6.724;2023-05-07T04:28:22;8.33;;;6.33;;
9836;SDS011;4957;51.412;6.724;2023-05-07T04:30:48;9.57;;;6.47;;
9836;SDS011;4957;51.412;6.724;2023-05-07T04:33:14;10.37;;;6.67;;
9836;SDS011;4957;51.412;6.724;2023-05-07T04:35:43;12.13;;;6.40;;
9836;SDS011;4957;51.412;6.724;2023-05-07T04:38:09;8.27;;;5.73;;
9836;SDS011;4957;51.412;6.724;2023-05-07T04:40:35;9.20;;;6.67;;
9836;SDS011;4957;51.412;6.724;2023-05-07T04:43:01;7.73;;;5.77;;
9836;SDS011;4957;51.412;6.724;2023-05-07T04:45:27;7.87;;;6.37;;
9836;SDS011;4957;51.412;6.724;2023-05-07T04:47:52;8.17;;;5.67;;
9836;SDS011;4957;51.412;6.724;2023-05-07T04:50:18;7.20;;;6.00;;
9836;SDS011;4957;51.412;6.724;2023-05-07T04:52:44;10.93;;;5.80;;
9836;SDS011;4957;51.412;6.724;2023-05-07T04:55:10;7.17;;;5.53;;
9836;SDS011;4957;51.412;6.724;2023-05-07T04:57:36;7.70;;;5.90;;
9836;SDS011;4957;51.412;6.724;2023-05-07T05:00:04;8.03;;;5.77;;
9836;SDS011;4957;51.412;6.724;2023-05-07T05:02:33;6.00;;;5.30;;
9836;SDS011;4957;51.412;6.724;2023-05-07T05:04:58;6.83;;;5.67;;
9836;SDS011;4957;51.412;6.724;2023-05-07T05:07:26;11.00;;;6.30;;
9836;SDS011;4957;51.412;6.724;2023-05-07T05:09:52;6.17;;;5.57;;
9836;SDS011;4957;51.412;6.724;2023-05-07T05:12:17;8.57;;;5.80;;
9836;SDS011;4957;51.412;6.724;2023-05-07T05:14:43;9.97;;;6.03;;
9836;SDS011;4957;51.412;6.724;2023-05-07T05:17:09;12.07;;;6.97;;
9836;SDS011;4957;51.412;6.724;2023-05-07T05:19:34;10.27;;;7.47;;
9836;SDS011;4957;51.412;6.724;2023-05-07T05:22:00;9.57;;;7.33;;
9836;SDS011;4957;51.412;6.724;2023-05-07T05:24:29;16.20;;;8.10;;
9836;SDS011;4957;51.412;6.724;2023-05-07T05:26:55;10.03;;;7.67;;
9836;SDS011;4957;51.412;6.724;2023-05-07T05:29:21;13.93;;;9.17;;
9836;SDS011;4957;51.412;6.724;2023-05-07T05:31:47;11.40;;;8.40;;
9836;SDS011;4957;51.412;6.724;2023-05-07T05:34:13;10.90;;;9.07;;
9836;SDS011;4957;51.412;6.724;2023-05-07T05:36:38;10.67;;;8.70;;
9836;SDS011;4957;51.412;6.724;2023-05-07T05:39:04;9.60;;;8.60;;
9836;SDS011;4957;51.412;6.724;2023-05-07T05:41:31;14.63;;;9.23;;
9836;SDS011;4957;51.412;6.724;2023-05-07T05:43:56;10.90;;;9.00;;
9836;SDS011;4957;51.412;6.724;2023-05-07T05:46:22;10.03;;;8.70;;
9836;SDS011;4957;51.412;6.724;2023-05-07T05:48:47;11.23;;;8.47;;
9836;SDS011;4957;51.412;6.724;2023-05-07T05:51:13;11.23;;;9.43;;
9836;SDS011;4957;51.412;6.724;2023-05-07T05:53:39;14.00;;;9.20;;
9836;SDS011;4957;51.412;6.724;2023-05-07T05:56:04;12.37;;;8.90;;
9836;SDS011;4957;51.412;6.724;2023-05-07T05:58:30;11.40;;;8.37;;
9836;SDS011;4957;51.412;6.724;2023-05-07T06:00:56;10.37;;;7.87;;
9836;SDS011;4957;51.412;6.724;2023-05-07T06:03:23;11.13;;;8.07;;
9836;SDS011;4957;51.412;6.724;2023-05-07T06:05:48;9.60;;;7.83;;
9836;SDS011;4957;51.412;6.724;2023-05-07T06:08:14;9.60;;;7.63;;
9836;SDS011;4957;51.412;6.724;2023-05-07T06:10:40;9.57;;;7.53;;
9836;SDS011;4957;51.412;6.724;2023-05-07T06:13:06;9.23;;;6.97;;
9836;SDS011;4957;51.412;6.724;2023-05-07T06:15:32;8.90;;;7.17;;
9836;SDS011;4957;51.412;6.724;2023-05-07T06:17:58;8.20;;;7.30;;
9836;SDS011;4957;51.412;6.724;2023-05-07T06:20:23;10.37;;;6.73;;
9836;SDS011;4957;51.412;6.724;2023-05-07T06:22:49;9.43;;;7.13;;
9836;SDS011;4957;51.412;6.724;2023-05-07T06:25:15;9.10;;;7.17;;
9836;SDS011;4957;51.412;6.724;2023-05-07T06:27:40;9.20;;;7.17;;
9836;SDS011;4957;51.412;6.724;2023-05-07T06:30:06;8.40;;;7.17;;
9836;SDS011;4957;51.412;6.724;2023-05-07T06:32:33;7.93;;;6.17;;
9836;SDS011;4957;51.412;6.724;2023-05-07T06:34:58;7.07;;;5.87;;
9836;SDS011;4957;51.412;6.724;2023-05-07T06:37:24;6.53;;;5.90;;
9836;SDS011;4957;51.412;6.724;2023-05-07T06:39:50;6.87;;;6.00;;
9836;SDS011;4957;51.412;6.724;2023-05-07T06:42:15;7.60;;;6.23;;
9836;SDS011;4957;51.412;6.724;2023-05-07T06:44:41;7.97;;;5.97;;
9836;SDS011;4957;51.412;6.724;2023-05-07T06:47:07;11.23;;;6.20;;
9836;SDS011;4957;51.412;6.724;2023-05-07T06:49:32;6.33;;;5.13;;
9836;SDS011;4957;51.412;6.724;2023-05-07T06:51:58;6.50;;;4.77;;
9836;SDS011;4957;51.412;6.724;2023-05-07T06:54:24;4.60;;;4.17;;
9836;SDS011;4957;51.412;6.724;2023-05-07T06:56:50;6.83;;;4.00;;
9836;SDS011;4957;51.412;6.724;2023-05-07T06:59:15;8.37;;;4.00;;
9836;SDS011;4957;51.412;6.724;2023-05-07T07:01:41;3.90;;;3.50;;
9836;SDS011;4957;51.412;6.724;2023-05-07T07:04:07;5.57;;;3.17;;
9836;SDS011;4957;51.412;6.724;2023-05-07T07:06:32;3.50;;;3.20;;
9836;SDS011;4957;51.412;6.724;2023-05-07T07:08:58;4.90;;;3.20;;
9836;SDS011;4957;51.412;6.724;2023-05-07T07:11:25;4.87;;;3.00;;
9836;SDS011;4957;51.412;6.724;2023-05-07T07:13:51;3.53;;;2.83;;
9836;SDS011;4957;51.412;6.724;2023-05-07T07:16:19;4.33;;;3.00;;
9836;SDS011;4957;51.412;6.724;2023-05-07T07:18:46;3.70;;;3.37;;
9836;SDS011;4957;51.412;6.724;2023-05-07T07:21:11;5.70;;;3.00;;
9836;SDS011;4957;51.412;6.724;2023-05-07T07:23:37;4.23;;;3.53;;
9836;SDS011;4957;51.412;6.724;2023-05-07T07:26:03;6.23;;;3.80;;
9836;SDS011;4957;51.412;6.724;2023-05-07T07:28:28;6.40;;;4.03;;
9836;SDS011;4957;51.412;6.724;2023-05-07T07:30:54;3.63;;;3.27;;
9836;SDS011;4957;51.412;6.724;2023-05-07T07:33:20;4.50;;;3.50;;
9836;SDS011;4957;51.412;6.724;2023-05-07T07:35:45;6.00;;;3.60;;
9836;SDS011;4957;51.412;6.724;2023-05-07T07:38:11;4.00;;;3.33;;
9836;SDS011;4957;51.412;6.724;2023-05-07T07:40:37;6.47;;;3.40;;
9836;SDS011;4957;51.412;6.724;2023-05-07T07:43:02;3.70;;;3.20;;
9836;SDS011;4957;51.412;6.724;2023-05-07T07:45:28;6.33;;;3.70;;
9836;SDS011;4957;51.412;6.724;2023-05-07T07:47:54;5.33;;;3.70;;
9836;SDS011;4957;51.412;6.724;2023-05-07T07:50:20;8.50;;;3.30;;
9836;SDS011;4957;51.412;6.724;2023-05-07T07:52:45;3.77;;;3.20;;
9836;SDS011;4957;51.412;6.724;2023-05-07T07:55:11;5.10;;;3.00;;
9836;SDS011;4957;51.412;6.724;2023-05-07T07:57:37;4.30;;;2.93;;
9836;SDS011;4957;51.412;6.724;2023-05-07T08:00:03;2.87;;;2.47;;
9836;SDS011;4957;51.412;6.724;2023-05-07T08:02:29;3.63;;;2.73;;
9836;SDS011;4957;51.412;6.724;2023-05-07T08:04:55;4.20;;;2.43;;
9836;SDS011;4957;51.412;6.724;2023-05-07T08:07:21;5.10;;;2.47;;
9836;SDS011;4957;51.412;6.724;2023-05-07T08:09:47;2.57;;;2.00;;
9836;SDS011;4957;51.412;6.724;2023-05-07T08:12:13;3.13;;;1.83;;
9836;SDS011;4957;51.412;6.724;2023-05-07T08:14:39;2.20;;;1.90;;
9836;SDS011;4957;51.412;6.724;2023-05-07T08:17:05;2.43;;;2.20;;
9836;SDS011;4957;51.412;6.724;2023-05-07T08:19:31;3.40;;;2.30;;
9836;SDS011;4957;51.412;6.724;2023-05-07T08:21:57;3.03;;;2.10;;
9836;SDS011;4957;51.412;6.724;2023-05-07T08:24:23;2.53;;;1.97;;
9836;SDS011;4957;51.412;6.724;2023-05-07T08:26:49;2.00;;;1.70;;
9836;SDS011;4957;51.412;6.724;2023-05-07T08:29:15;3.13;;;1.60;;
9836;SDS011;4957;51.412;6.724;2023-05-07T08:31:40;2.30;;;1.70;;
9836;SDS011;4957;51.412;6.724;2023-05-07T08:34:06;2.70;;;1.70;;
9836;SDS011;4957;51.412;6.724;2023-05-07T08:36:32;1.80;;;1.50;;
9836;SDS011;4957;51.412;6.724;2023-05-07T08:38:58;2.60;;;1.93;;
9836;SDS011;4957;51.412;6.724;2023-05-07T08:41:25;1.97;;;1.60;;
9836;SDS011;4957;51.412;6.724;2023-05-07T08:43:51;2.80;;;1.87;;
9836;SDS011;4957;51.412;6.724;2023-05-07T08:46:19;3.47;;;1.90;;
9836;SDS011;4957;51.412;6.724;2023-05-07T08:48:49;2.90;;;1.50;;
9836;SDS011;4957;51.412;6.724;2023-05-07T08:51:16;1.70;;;1.60;;
9836;SDS011;4957;51.412;6.724;2023-05-07T08:53:44;1.87;;;1.50;;
9836;SDS011;4957;51.412;6.724;2023-05-07T08:56:11;2.13;;;1.60;;
9836;SDS011;4957;51.412;6.724;2023-05-07T08:58:37;1.60;;;1.50;;
9836;SDS011;4957;51.412;6.724;2023-05-07T09:01:10;2.77;;;1.30;;
9836;SDS011;4957;51.412;6.724;2023-05-07T09:03:39;5.57;;;1.70;;
9836;SDS011;4957;51.412;6.724;2023-05-07T09:06:05;2.17;;;1.47;;
9836;SDS011;4957;51.412;6.724;2023-05-07T09:08:32;2.13;;;1.50;;
9836;SDS011;4957;51.412;6.724;2023-05-07T09:10:59;1.70;;;1.20;;
9836;SDS011;4957;51.412;6.724;2023-05-07T09:13:25;3.13;;;1.17;;
9836;SDS011;4957;51.412;6.724;2023-05-07T09:15:52;1.53;;;1.30;;
9836;SDS011;4957;51.412;6.724;2023-05-07T09:18:18;1.40;;;1.30;;
9836;SDS011;4957;51.412;6.724;2023-05-07T09:20:43;2.03;;;1.30;;
9836;SDS011;4957;51.412;6.724;2023-05-07T09:23:09;3.90;;;1.30;;
9836;SDS011;4957;51.412;6.724;2023-05-07T09:25:36;1.90;;;1.40;;
9836;SDS011;4957;51.412;6.724;2023-05-07T09:28:02;2.23;;;1.30;;
9836;SDS011;4957;51.412;6.724;2023-05-07T09:30:30;2.30;;;1.20;;
9836;SDS011;4957;51.412;6.724;2023-05-07T09:33:00;2.60;;;1.30;;
9836;SDS011;4957;51.412;6.724;2023-05-07T09:35:27;1.27;;;1.17;;
9836;SDS011;4957;51.412;6.724;2023-05-07T09:37:53;4.10;;;1.30;;
9836;SDS011;4957;51.412;6.724;2023-05-07T09:40:25;5.93;;;1.00;;
9836;SDS011;4957;51.412;6.724;2023-05-07T09:42:52;1.10;;;1.00;;
9836;SDS011;4957;51.412;6.724;2023-05-07T09:45:25;1.30;;;1.20;;
9836;SDS011;4957;51.412;6.724;2023-05-07T09:47:57;1.50;;;1.23;;
9836;SDS011;4957;51.412;6.724;2023-05-07T09:50:26;1.60;;;1.30;;
9836;SDS011;4957;51.412;6.724;2023-05-07T09:52:54;1.20;;;1.10;;
9836;SDS011;4957;51.412;6.724;2023-05-07T09:55:21;2.43;;;0.93;;
9836;SDS011;4957;51.412;6.724;2023-05-07T09:57:49;2.40;;;1.20;;
9836;SDS011;4957;51.412;6.724;2023-05-07T10:00:16;1.33;;;1.13;;
9836;SDS011;4957;51.412;6.724;2023-05-07T10:02:46;1.67;;;0.80;;
9836;SDS011;4957;51.412;6.724;2023-05-07T10:05:16;2.30;;;1.13;;
9836;SDS011;4957;51.412;6.724;2023-05-07T10:07:43;1.47;;;1.10;;
9836;SDS011;4957;51.412;6.724;2023-05-07T10:10:10;0.83;;;0.83;;
9836;SDS011;4957;51.412;6.724;2023-05-07T10:12:36;1.43;;;1.00;;
9836;SDS011;4957;51.412;6.724;2023-05-07T10:15:09;1.33;;;0.97;;
9836;SDS011;4957;51.412;6.724;2023-05-07T10:17:36;1.53;;;0.93;;
9836;SDS011;4957;51.412;6.724;2023-05-07T10:20:03;1.10;;;1.00;;
9836;SDS011;4957;51.412;6.724;2023-05-07T10:22:31;1.80;;;0.77;;
9836;SDS011;4957;51.412;6.724;2023-05-07T10:25:02;2.47;;;1.33;;
9836;SDS011;4957;51.412;6.724;2023-05-07T10:27:31;0.90;;;0.90;;
9836;SDS011;4957;51.412;6.724;2023-05-07T10:35:06;2.27;;;1.30;;
9836;SDS011;4957;51.412;6.724;2023-05-07T10:37:35;4.63;;;1.63;;
9836;SDS011;4957;51.412;6.724;2023-05-07T10:40:01;3.30;;;1.57;;
9836;SDS011;4957;51.412;6.724;2023-05-07T10:42:27;3.30;;;1.70;;
9836;SDS011;4957;51.412;6.724;2023-05-07T10:44:53;1.93;;;1.67;;
9836;SDS011;4957;51.412;6.724;2023-05-07T10:47:18;1.63;;;1.30;;
9836;SDS011;4957;51.412;6.724;2023-05-07T10:55:18;1.50;;;1.40;;
9836;SDS011;4957;51.412;6.724;2023-05-07T10:57:44;2.57;;;1.20;;
9836;SDS011;4957;51.412;6.724;2023-05-07T11:00:56;1.07;;;1.00;;
9836;SDS011;4957;51.412;6.724;2023-05-07T11:05:25;2.33;;;0.90;;
9836;SDS011;4957;51.412;6.724;2023-05-07T11:07:59;1.30;;;0.90;;
9836;SDS011;4957;51.412;6.724;2023-05-07T11:10:47;1.80;;;1.00;;
9836;SDS011;4957;51.412;6.724;2023-05-07T11:13:13;4.13;;;1.40;;
9836;SDS011;4957;51.412;6.724;2023-05-07T11:15:40;4.67;;;1.10;;
9836;SDS011;4957;51.412;6.724;2023-05-07T11:18:09;1.40;;;1.30;;
9836;SDS011;4957;51.412;6.724;2023-05-07T11:20:55;1.97;;;1.30;;
9836;SDS011;4957;51.412;6.724;2023-05-07T11:26:00;2.17;;;1.30;;
9836;SDS011;4957;51.412;6.724;2023-05-07T11:28:38;1.60;;;1.40;;
9836;SDS011;4957;51.412;6.724;2023-05-07T11:31:08;3.30;;;1.03;;
9836;SDS011;4957;51.412;6.724;2023-05-07T11:33:35;3.70;;;1.60;;
9836;SDS011;4957;51.412;6.724;2023-05-07T11:36:03;1.50;;;1.30;;
9836;SDS011;4957;51.412;6.724;2023-05-07T11:38:34;3.57;;;1.50;;
9836;SDS011;4957;51.412;6.724;2023-05-07T11:41:01;1.63;;;1.37;;
9836;SDS011;4957;51.412;6.724;2023-05-07T11:43:29;1.40;;;1.30;;
9836;SDS011;4957;51.412;6.724;2023-05-07T11:46:04;2.70;;;1.40;;
9836;SDS011;4957;51.412;6.724;2023-05-07T11:48:36;1.57;;;1.40;;
9836;SDS011;4957;51.412;6.724;2023-05-07T11:51:03;1.60;;;1.50;;
9836;SDS011;4957;51.412;6.724;2023-05-07T11:53:37;2.33;;;1.40;;
9836;SDS011;4957;51.412;6.724;2023-05-07T11:56:08;2.10;;;1.40;;
9836;SDS011;4957;51.412;6.724;2023-05-07T11:58:35;2.97;;;1.33;;
9836;SDS011;4957;51.412;6.724;2023-05-07T12:01:01;1.70;;;1.40;;
9836;SDS011;4957;51.412;6.724;2023-05-07T12:03:27;2.37;;;1.60;;
9836;SDS011;4957;51.412;6.724;2023-05-07T12:05:52;2.53;;;1.63;;
9836;SDS011;4957;51.412;6.724;2023-05-07T12:08:19;1.67;;;1.57;;
9836;SDS011;4957;51.412;6.724;2023-05-07T12:10:47;2.07;;;1.60;;
9836;SDS011;4957;51.412;6.724;2023-05-07T12:13:16;3.20;;;2.00;;
9836;SDS011;4957;51.412;6.724;2023-05-07T12:15:43;2.17;;;1.73;;
9836;SDS011;4957;51.412;6.724;2023-05-07T12:18:09;4.27;;;2.93;;
9836;SDS011;4957;51.412;6.724;2023-05-07T12:20:36;4.57;;;2.10;;
9836;SDS011;4957;51.412;6.724;2023-05-07T12:23:02;3.00;;;2.27;;
9836;SDS011;4957;51.412;6.724;2023-05-07T12:25:31;4.43;;;2.70;;
9836;SDS011;4957;51.412;6.724;2023-05-07T12:28:00;3.80;;;2.10;;
9836;SDS011;4957;51.412;6.724;2023-05-07T12:30:26;3.57;;;1.90;;
9836;SDS011;4957;51.412;6.724;2023-05-07T12:32:52;3.87;;;1.90;;
9836;SDS011;4957;51.412;6.724;2023-05-07T12:37:58;8.90;;;2.37;;
9836;SDS011;4957;51.412;6.724;2023-05-07T12:40:38;1.73;;;1.60;;
9836;SDS011;4957;51.412;6.724;2023-05-07T12:43:05;3.17;;;1.50;;
9836;SDS011;4957;51.412;6.724;2023-05-07T12:45:31;3.57;;;2.30;;
9836;SDS011;4957;51.412;6.724;2023-05-07T12:48:03;2.20;;;1.97;;
9836;SDS011;4957;51.412;6.724;2023-05-07T12:50:32;3.33;;;1.80;;
9836;SDS011;4957;51.412;6.724;2023-05-07T12:52:58;2.73;;;1.80;;
9836;SDS011;4957;51.412;6.724;2023-05-07T12:55:25;3.80;;;1.70;;
9836;SDS011;4957;51.412;6.724;2023-05-07T12:57:51;3.03;;;1.90;;
9836;SDS011;4957;51.412;6.724;2023-05-07T13:00:18;2.10;;;1.90;;
9836;SDS011;4957;51.412;6.724;2023-05-07T13:03:03;2.17;;;1.70;;
9836;SDS011;4957;51.412;6.724;2023-05-07T13:05:30;5.87;;;1.80;;
9836;SDS011;4957;51.412;6.724;2023-05-07T13:07:56;1.60;;;1.50;;
9836;SDS011;4957;51.412;6.724;2023-05-07T13:10:23;2.00;;;1.80;;
9836;SDS011;4957;51.412;6.724;2023-05-07T13:12:49;2.43;;;1.77;;
9836;SDS011;4957;51.412;6.724;2023-05-07T13:15:15;3.13;;;2.10;;
9836;SDS011;4957;51.412;6.724;2023-05-07T13:17:41;2.67;;;1.90;;
9836;SDS011;4957;51.412;6.724;2023-05-07T13:20:08;6.47;;;2.23;;
9836;SDS011;4957;51.412;6.724;2023-05-07T13:22:35;2.10;;;1.90;;
9836;SDS011;4957;51.412;6.724;2023-05-07T13:25:01;3.33;;;1.80;;
9836;SDS011;4957;51.412;6.724;2023-05-07T13:27:26;2.97;;;2.30;;
9836;SDS011;4957;51.412;6.724;2023-05-07T13:29:52;3.63;;;2.73;;
9836;SDS011;4957;51.412;6.724;2023-05-07T13:32:18;2.53;;;2.00;;
9836;SDS011;4957;51.412;6.724;2023-05-07T13:34:43;3.83;;;2.20;;
9836;SDS011;4957;51.412;6.724;2023-05-07T13:37:09;2.77;;;2.17;;
9836;SDS011;4957;51.412;6.724;2023-05-07T13:39:35;2.53;;;2.33;;
9836;SDS011;4957;51.412;6.724;2023-05-07T13:42:01;2.57;;;2.20;;
9836;SDS011;4957;51.412;6.724;2023-05-07T13:44:27;4.57;;;2.47;;
9836;SDS011;4957;51.412;6.724;2023-05-07T13:46:53;4.03;;;2.40;;
9836;SDS011;4957;51.412;6.724;2023-05-07T13:49:18;3.07;;;2.47;;
9836;SDS011;4957;51.412;6.724;2023-05-07T13:51:44;4.33;;;2.63;;
9836;SDS011;4957;51.412;6.724;2023-05-07T13:54:10;2.33;;;2.03;;
9836;SDS011;4957;51.412;6.724;2023-05-07T13:56:36;3.63;;;2.10;;
9836;SDS011;4957;51.412;6.724;2023-05-07T13:59:02;7.43;;;2.90;;
9836;SDS011;4957;51.412;6.724;2023-05-07T14:01:28;10.87;;;3.17;;
9836;SDS011;4957;51.412;6.724;2023-05-07T14:03:53;4.87;;;3.30;;
9836;SDS011;4957;51.412;6.724;2023-05-07T14:06:20;13.23;;;3.33;;
9836;SDS011;4957;51.412;6.724;2023-05-07T14:08:46;23.03;;;4.10;;
9836;SDS011;4957;51.412;6.724;2023-05-07T14:11:12;66.77;;;6.07;;
9836;SDS011;4957;51.412;6.724;2023-05-07T14:13:38;32.93;;;6.07;;
9836;SDS011;4957;51.412;6.724;2023-05-07T14:16:03;0.00;;;0.00;;
9836;SDS011;4957;51.412;6.724;2023-05-07T14:18:29;1.20;;;0.10;;
9836;SDS011;4957;51.412;6.724;2023-05-07T14:20:55;0.00;;;0.00;;
9836;SDS011;4957;51.412;6.724;2023-05-07T14:23:21;0.00;;;0.00;;
9836;SDS011;4957;51.412;6.724;2023-05-07T14:25:51;0.00;;;0.00;;
9836;SDS011;4957;51.412;6.724;2023-05-07T14:28:18;0.00;;;0.00;;
9836;SDS011;4957;51.412;6.724;2023-05-07T14:30:44;0.37;;;0.37;;
9836;SDS011;4957;51.412;6.724;2023-05-07T14:33:09;0.00;;;0.00;;
9836;SDS011;4957;51.412;6.724;2023-05-07T14:35:35;0.00;;;0.00;;
9836;SDS011;4957;51.412;6.724;2023-05-07T14:38:01;0.47;;;0.30;;
9836;SDS011;4957;51.412;6.724;2023-05-07T14:40:27;0.00;;;0.00;;
9836;SDS011;4957;51.412;6.724;2023-05-07T14:42:53;0.00;;;0.00;;
9836;SDS011;4957;51.412;6.724;2023-05-07T14:45:20;0.00;;;0.00;;
9836;SDS011;4957;51.412;6.724;2023-05-07T14:47:46;0.00;;;0.00;;
9836;SDS011;4957;51.412;6.724;2023-05-07T14:50:12;0.00;;;0.00;;
9836;SDS011;4957;51.412;6.724;2023-05-07T14:52:38;0.00;;;0.00;;
9836;SDS011;4957;51.412;6.724;2023-05-07T14:55:03;0.00;;;0.00;;
9836;SDS011;4957;51.412;6.724;2023-05-07T14:57:30;0.23;;;0.23;;
9836;SDS011;4957;51.412;6.724;2023-05-07T14:59:59;0.00;;;0.00;;
9836;SDS011;4957;51.412;6.724;2023-05-07T15:02:26;0.00;;;0.00;;
9836;SDS011;4957;51.412;6.724;2023-05-07T15:04:51;0.00;;;0.00;;
9836;SDS011;4957;51.412;6.724;2023-05-07T15:07:17;0.00;;;0.00;;
9836;SDS011;4957;51.412;6.724;2023-05-07T15:09:43;0.60;;;0.60;;
9836;SDS011;4957;51.412;6.724;2023-05-07T15:12:10;0.00;;;0.00;;
9836;SDS011;4957;51.412;6.724;2023-05-07T15:14:37;0.00;;;0.00;;
9836;SDS011;4957;51.412;6.724;2023-05-07T15:17:03;0.00;;;0.00;;
9836;SDS011;4957;51.412;6.724;2023-05-07T15:19:29;0.00;;;0.00;;
9836;SDS011;4957;51.412;6.724;2023-05-07T15:21:57;0.00;;;0.00;;
9836;SDS011;4957;51.412;6.724;2023-05-07T15:24:27;0.00;;;0.00;;
9836;SDS011;4957;51.412;6.724;2023-05-07T15:26:53;0.00;;;0.00;;
9836;SDS011;4957;51.412;6.724;2023-05-07T15:29:19;0.00;;;0.00;;
9836;SDS011;4957;51.412;6.724;2023-05-07T15:31:45;0.00;;;0.00;;